Time;durP1;ratioP1;P1;durP2;ratioP2;P2;SDS_P1;SDS_P2;PMS_P1;PMS_P2;Temp;Humidity;BMP_temperature;BMP_pressure;BME280_temperature;BME280_humidity;BME280_pressure;Samples;Min_cycle;Max_cycle;Signal;HPM_P1;HPM_P2
2022/07/28 00:01:32;;;;;;;2.75;0.90;;;15.30;99.90;;;;;;5045229;28;20319;-91
2022/07/28 00:04:04;;;;;;;0.85;0.80;;;15.30;99.90;;;;;;5033948;28;20207;-94
2022/07/28 00:06:36;;;;;;;1.80;0.93;;;15.40;99.90;;;;;;5052660;28;20300;-93
2022/07/28 00:09:07;;;;;;;2.17;1.08;;;15.40;99.90;;;;;;5052311;28;20220;-92
2022/07/28 00:11:38;;;;;;;2.20;1.20;;;15.40;99.90;;;;;;5052074;28;20226;-92
2022/07/28 00:14:12;;;;;;;1.65;0.90;;;15.50;99.90;;;;;;5051506;28;20223;-86
2022/07/28 00:16:43;;;;;;;2.55;0.82;;;15.60;99.90;;;;;;5031370;28;20264;-88
2022/07/28 00:19:14;;;;;;;1.23;0.73;;;15.70;99.90;;;;;;5036711;28;20580;-90
2022/07/28 00:21:46;;;;;;;2.53;0.70;;;15.80;99.90;;;;;;5046113;28;20228;-93
2022/07/28 00:24:18;;;;;;;2.25;0.70;;;15.90;99.90;;;;;;5045651;28;20224;-90
2022/07/28 00:26:50;;;;;;;2.05;0.50;;;16.00;99.90;;;;;;5049763;28;20218;-92
2022/07/28 00:29:25;;;;;;;3.47;0.50;;;16.00;99.90;;;;;;5052063;28;20217;-92
2022/07/28 00:31:57;;;;;;;0.65;0.40;;;16.00;99.90;;;;;;5043964;28;20706;-88
2022/07/28 00:34:27;;;;;;;3.42;0.70;;;16.10;99.90;;;;;;5050702;28;20213;-93
2022/07/28 00:36:59;;;;;;;1.08;0.60;;;16.20;99.90;;;;;;5052308;28;20200;-92
2022/07/28 00:39:30;;;;;;;1.20;0.47;;;16.30;99.90;;;;;;5051835;28;20207;-94
2022/07/28 00:42:02;;;;;;;1.17;0.57;;;16.40;99.90;;;;;;5054138;28;20216;-93
2022/07/28 00:44:40;;;;;;;2.45;0.50;;;16.50;99.90;;;;;;5067954;28;20173;-93
2022/07/28 00:47:11;;;;;;;2.28;0.57;;;16.70;99.90;;;;;;5051985;28;20208;-94
2022/07/28 00:49:42;;;;;;;0.98;0.60;;;16.80;99.90;;;;;;5053388;28;20200;-93
2022/07/28 00:52:15;;;;;;;1.30;0.40;;;16.80;99.90;;;;;;5054075;28;20193;-93
2022/07/28 00:54:46;;;;;;;0.55;0.50;;;16.90;99.90;;;;;;5051848;28;20209;-94
2022/07/28 00:57:19;;;;;;;1.17;0.60;;;16.90;99.90;;;;;;5052854;28;20200;-91
2022/07/28 00:59:54;;;;;;;0.50;0.32;;;17.00;99.90;;;;;;5053346;28;20196;-96
2022/07/28 01:02:26;;;;;;;3.22;0.60;;;17.10;99.90;;;;;;5038979;28;20200;-94
2022/07/28 01:04:57;;;;;;;1.17;0.50;;;17.10;99.90;;;;;;5050652;28;20223;-95
2022/07/28 01:07:40;;;;;;;1.67;0.60;;;17.10;99.90;;;;;;5049576;28;20197;-95
2022/07/28 01:10:18;;;;;;;0.35;0.35;;;17.10;99.90;;;;;;5053050;28;20201;-94
2022/07/28 01:12:57;;;;;;;0.85;0.40;;;17.10;99.90;;;;;;5052193;28;20659;-95
2022/07/28 01:15:34;;;;;;;0.98;0.50;;;17.20;99.90;;;;;;5050826;28;20205;-94
2022/07/28 01:18:10;;;;;;;1.15;0.50;;;17.30;99.90;;;;;;5049350;28;20236;-92
2022/07/28 01:20:43;;;;;;;0.30;0.30;;;17.40;99.90;;;;;;5045374;28;20224;-90
2022/07/28 01:23:39;;;;;;;1.70;0.50;;;17.60;99.90;;;;;;5042527;28;20201;-95
2022/07/28 01:26:23;;;;;;;0.75;0.50;;;17.70;99.90;;;;;;5056415;28;20205;-90
2022/07/28 01:29:05;;;;;;;2.45;0.50;;;17.80;99.90;;;;;;5064376;28;20205;-91
2022/07/28 01:31:42;;;;;;;0.50;0.50;;;17.90;99.90;;;;;;5073173;28;20203;-93
2022/07/28 01:34:17;;;;;;;1.40;0.40;;;18.00;99.90;;;;;;5062681;28;20212;-91
2022/07/28 01:36:54;;;;;;;0.65;0.35;;;18.10;99.90;;;;;;5058236;28;20196;-91
2022/07/28 01:39:31;;;;;;;0.77;0.45;;;18.10;99.90;;;;;;5038100;28;20207;-90
2022/07/28 01:42:06;;;;;;;1.58;0.47;;;18.00;99.90;;;;;;5053882;28;20246;-91
2022/07/28 01:44:43;;;;;;;1.92;0.43;;;18.10;99.90;;;;;;5056643;28;20224;-90
2022/07/28 01:47:21;;;;;;;0.73;0.40;;;18.20;99.90;;;;;;5040203;28;20243;-91
2022/07/28 01:49:54;;;;;;;1.10;0.60;;;18.20;99.90;;;;;;5054489;28;20205;-90
2022/07/28 01:52:27;;;;;;;1.60;0.73;;;18.30;99.90;;;;;;5036111;28;20263;-93
2022/07/28 01:54:59;;;;;;;0.95;0.60;;;18.40;99.90;;;;;;5036360;28;20213;-94
2022/07/28 01:57:33;;;;;;;2.92;0.45;;;18.50;99.90;;;;;;5055133;28;20276;-92
2022/07/28 02:00:06;;;;;;;1.35;0.57;;;18.50;99.90;;;;;;5055107;28;20644;-90
2022/07/28 02:02:41;;;;;;;1.23;0.40;;;18.50;99.90;;;;;;5055693;28;20211;-91
2022/07/28 02:05:15;;;;;;;2.17;0.70;;;18.60;99.90;;;;;;5054332;28;20279;-90
2022/07/28 02:07:48;;;;;;;1.17;0.30;;;18.70;99.90;;;;;;5055018;28;20678;-92
2022/07/28 02:10:22;;;;;;;1.73;0.60;;;18.80;99.90;;;;;;5055352;28;20196;-92
2022/07/28 02:12:57;;;;;;;1.02;0.50;;;18.80;99.90;;;;;;5055058;28;20648;-92
2022/07/28 02:15:32;;;;;;;1.58;0.60;;;18.80;99.90;;;;;;5037370;28;20672;-92
2022/07/28 02:18:06;;;;;;;0.77;0.47;;;18.80;99.90;;;;;;5049427;28;20227;-91
2022/07/28 02:20:37;;;;;;;1.40;0.50;;;18.80;99.90;;;;;;5049112;28;20236;-92
2022/07/28 02:23:13;;;;;;;1.55;0.60;;;18.80;99.90;;;;;;5043413;28;20201;-93
2022/07/28 02:25:46;;;;;;;1.27;0.40;;;18.80;99.90;;;;;;5055554;28;20203;-93
2022/07/28 02:28:21;;;;;;;0.40;0.40;;;18.80;99.90;;;;;;5054458;28;20213;-90
2022/07/28 02:30:57;;;;;;;1.65;0.40;;;18.90;99.90;;;;;;5060246;28;20205;-92
2022/07/28 02:33:34;;;;;;;1.90;0.73;;;19.10;99.90;;;;;;5047975;28;20184;-91
2022/07/28 02:36:12;;;;;;;1.25;0.50;;;19.10;99.90;;;;;;5054453;28;20298;-92
2022/07/28 02:38:46;;;;;;;0.45;0.43;;;19.10;99.90;;;;;;5052921;28;20559;-90
2022/07/28 02:41:24;;;;;;;1.02;0.40;;;19.20;99.90;;;;;;5046992;28;20707;-91
2022/07/28 02:44:00;;;;;;;0.50;0.40;;;19.20;99.90;;;;;;5075433;28;20260;-89
2022/07/28 02:46:38;;;;;;;2.28;0.47;;;19.20;99.90;;;;;;5035361;28;20235;-91
2022/07/28 02:49:16;;;;;;;1.33;0.60;;;19.30;99.90;;;;;;5042992;28;20223;-90
2022/07/28 02:52:12;;;;;;;0.80;0.55;;;19.40;99.90;;;;;;5061189;28;20219;-94
2022/07/28 02:57:28;;;;;;;0.70;0.45;;;19.40;99.90;;;;;;5053747;28;20250;-92
2022/07/28 03:00:00;;;;;;;2.33;0.47;;;19.50;99.90;;;;;;5054323;28;20208;-91
2022/07/28 03:02:33;;;;;;;0.70;0.40;;;19.60;99.90;;;;;;5053051;28;20230;-92
2022/07/28 03:05:08;;;;;;;0.55;0.32;;;19.60;99.90;;;;;;5053892;28;20211;-91
2022/07/28 03:07:40;;;;;;;0.43;0.20;;;19.60;99.90;;;;;;5053545;28;20188;-93
2022/07/28 03:10:18;;;;;;;0.38;0.22;;;19.70;99.90;;;;;;5054331;28;20220;-91
2022/07/28 03:12:50;;;;;;;0.50;0.40;;;19.60;99.90;;;;;;5054047;28;20198;-93
2022/07/28 03:15:21;;;;;;;0.50;0.30;;;19.70;99.90;;;;;;5036538;28;20197;-92
2022/07/28 03:17:54;;;;;;;0.63;0.40;;;19.60;99.90;;;;;;5034866;28;20248;-92
2022/07/28 03:20:28;;;;;;;0.40;0.40;;;19.60;99.90;;;;;;5039228;28;20258;-91
2022/07/28 03:22:59;;;;;;;2.08;0.30;;;19.60;99.90;;;;;;5047674;28;20196;-91
2022/07/28 03:25:45;;;;;;;0.77;0.30;;;19.60;99.90;;;;;;5056774;28;20192;-89
2022/07/28 03:28:19;;;;;;;1.25;0.40;;;19.60;99.90;;;;;;5023363;28;20235;-88
2022/07/28 03:30:55;;;;;;;1.27;0.22;;;19.60;99.90;;;;;;5036597;28;20193;-92
2022/07/28 03:33:28;;;;;;;1.30;0.40;;;19.70;99.90;;;;;;5035190;28;20623;-92
2022/07/28 03:36:04;;;;;;;0.88;0.30;;;19.80;99.90;;;;;;5033626;28;20347;-90
2022/07/28 03:38:40;;;;;;;0.65;0.35;;;19.80;99.90;;;;;;5032915;28;20660;-91
2022/07/28 03:41:14;;;;;;;0.47;0.20;;;19.80;99.90;;;;;;5034402;28;20630;-90
2022/07/28 03:43:49;;;;;;;0.65;0.43;;;19.80;99.90;;;;;;5041572;28;20204;-93
2022/07/28 03:46:22;;;;;;;1.55;0.20;;;19.80;99.90;;;;;;5023264;28;20289;-91
2022/07/28 03:48:52;;;;;;;0.88;0.40;;;19.70;99.90;;;;;;5019487;28;20193;-91
2022/07/28 03:51:28;;;;;;;0.70;0.50;;;19.60;99.90;;;;;;5032788;28;20212;-92
2022/07/28 03:54:00;;;;;;;0.30;0.30;;;19.50;99.90;;;;;;5033055;28;20204;-91
2022/07/28 03:56:30;;;;;;;1.75;0.30;;;19.50;99.90;;;;;;5032953;28;20560;-91
2022/07/28 03:59:02;;;;;;;1.63;0.35;;;19.50;99.90;;;;;;5019958;28;20209;-92
2022/07/28 04:01:33;;;;;;;0.93;0.30;;;19.60;99.90;;;;;;5018540;28;20232;-91
2022/07/28 04:04:05;;;;;;;0.90;0.40;;;19.70;99.90;;;;;;5018796;28;21189;-93
2022/07/28 04:06:40;;;;;;;1.33;0.38;;;19.60;99.90;;;;;;5021435;28;20267;-93
2022/07/28 04:09:11;;;;;;;0.43;0.30;;;19.60;99.90;;;;;;5019303;28;20213;-91
2022/07/28 04:11:43;;;;;;;0.55;0.25;;;19.60;99.90;;;;;;5011632;28;20209;-91
2022/07/28 04:14:16;;;;;;;0.40;0.30;;;19.70;99.90;;;;;;5027202;28;20251;-88
2022/07/28 04:16:48;;;;;;;1.13;0.35;;;19.70;99.90;;;;;;5036827;28;20231;-90
2022/07/28 04:19:20;;;;;;;0.63;0.28;;;19.70;99.90;;;;;;5040965;28;20202;-92
2022/07/28 04:21:54;;;;;;;0.30;0.30;;;19.60;99.90;;;;;;5063029;28;20680;-88
2022/07/28 04:24:25;;;;;;;0.55;0.20;;;19.60;99.90;;;;;;5049546;28;20605;-88
2022/07/28 04:26:56;;;;;;;0.95;0.30;;;19.60;99.90;;;;;;5051389;28;20283;-87
2022/07/28 04:29:27;;;;;;;1.77;0.50;;;19.60;99.90;;;;;;5051155;28;20197;-89
2022/07/28 04:31:57;;;;;;;0.75;0.38;;;19.60;99.90;;;;;;5048713;28;20199;-84
2022/07/28 04:34:29;;;;;;;0.30;0.30;;;19.60;99.90;;;;;;5049470;28;20243;-83
2022/07/28 04:37:03;;;;;;;0.75;0.30;;;19.60;99.90;;;;;;5050102;28;20203;-86
2022/07/28 04:39:34;;;;;;;1.95;0.35;;;19.50;99.90;;;;;;5048471;28;20189;-85
2022/07/28 04:42:05;;;;;;;0.85;0.30;;;19.50;99.90;;;;;;5039284;28;20707;-84
2022/07/28 04:44:41;;;;;;;0.60;0.30;;;19.50;99.90;;;;;;5047760;28;20184;-83
2022/07/28 04:47:11;;;;;;;0.65;0.30;;;19.60;99.90;;;;;;5030401;28;20228;-84
2022/07/28 04:49:42;;;;;;;0.40;0.20;;;19.60;99.90;;;;;;5048910;28;20192;-84
2022/07/28 04:52:15;;;;;;;0.20;0.15;;;19.60;99.90;;;;;;5040044;28;20204;-84
2022/07/28 04:54:46;;;;;;;0.57;0.30;;;19.50;99.90;;;;;;5049695;28;20558;-83
2022/07/28 04:57:17;;;;;;;0.45;0.40;;;19.60;99.90;;;;;;5036858;28;20192;-82
2022/07/28 04:59:48;;;;;;;1.05;0.35;;;19.60;99.90;;;;;;5043807;28;20205;-84
2022/07/28 05:02:19;;;;;;;0.28;0.28;;;19.60;99.90;;;;;;5053856;28;20212;-83
2022/07/28 05:04:50;;;;;;;0.55;0.40;;;19.60;99.90;;;;;;5049650;28;20201;-83
2022/07/28 05:07:22;;;;;;;0.52;0.20;;;19.70;99.90;;;;;;5039420;28;20578;-83
2022/07/28 05:09:53;;;;;;;0.68;0.22;;;19.70;99.90;;;;;;5044326;28;20666;-83
2022/07/28 05:12:24;;;;;;;0.68;0.40;;;19.60;99.90;;;;;;5050496;28;20507;-83
2022/07/28 05:14:55;;;;;;;1.52;0.40;;;19.70;99.90;;;;;;5053586;28;20192;-82
2022/07/28 05:17:27;;;;;;;0.68;0.38;;;19.70;99.90;;;;;;5057870;28;20223;-83
2022/07/28 05:19:58;;;;;;;0.88;0.30;;;19.70;99.90;;;;;;5048099;28;20200;-80
2022/07/28 05:22:42;;;;;;;0.22;0.22;;;19.70;99.90;;;;;;5045824;28;20232;-84
2022/07/28 05:25:17;;;;;;;0.52;0.35;;;19.70;99.90;;;;;;5053582;28;20193;-80
2022/07/28 05:27:49;;;;;;;0.70;0.30;;;19.70;99.90;;;;;;5053319;28;20203;-81
2022/07/28 05:30:21;;;;;;;0.73;0.30;;;19.70;99.90;;;;;;5037203;28;20248;-81
2022/07/28 05:32:52;;;;;;;1.60;0.43;;;19.80;99.90;;;;;;5052433;28;20571;-86
2022/07/28 05:35:23;;;;;;;0.30;0.30;;;19.80;99.90;;;;;;5052917;28;20204;-85
2022/07/28 05:37:56;;;;;;;0.30;0.28;;;19.70;99.90;;;;;;5054645;28;20200;-83
2022/07/28 05:40:27;;;;;;;1.00;0.80;;;19.70;99.90;;;;;;5044424;28;20204;-81
2022/07/28 05:42:58;;;;;;;0.43;0.40;;;19.60;99.90;;;;;;5049249;28;20209;-82
2022/07/28 05:45:30;;;;;;;1.20;0.60;;;19.60;99.90;;;;;;5046431;28;20192;-88
2022/07/28 05:48:02;;;;;;;1.50;0.68;;;19.60;99.90;;;;;;5055604;28;20188;-88
2022/07/28 05:50:32;;;;;;;0.22;0.20;;;19.60;99.90;;;;;;5053671;28;20266;-91
2022/07/28 05:53:05;;;;;;;2.78;0.35;;;19.60;99.90;;;;;;5035292;28;20200;-88
2022/07/28 05:55:36;;;;;;;0.80;0.30;;;19.50;99.90;;;;;;5031542;28;20225;-93
2022/07/28 05:58:08;;;;;;;0.75;0.40;;;19.50;99.90;;;;;;5043872;28;20221;-91
2022/07/28 06:00:40;;;;;;;0.40;0.25;;;19.40;99.90;;;;;;5025424;28;20213;-92
2022/07/28 06:03:13;;;;;;;1.00;0.60;;;19.40;99.90;;;;;;5043118;28;21534;-94
2022/07/28 06:05:44;;;;;;;2.58;0.65;;;19.40;99.90;;;;;;5028132;28;20232;-94
2022/07/28 06:08:17;;;;;;;1.55;0.50;;;19.40;99.90;;;;;;5044077;28;20216;-92
2022/07/28 06:11:00;;;;;;;0.65;0.40;;;19.50;99.90;;;;;;5041016;28;20251;-94
2022/07/28 06:13:33;;;;;;;0.43;0.43;;;19.50;99.90;;;;;;5036993;28;20216;-94
2022/07/28 06:16:05;;;;;;;1.42;0.60;;;19.50;99.90;;;;;;5036206;28;20224;-94
2022/07/28 06:18:37;;;;;;;0.47;0.40;;;19.40;99.90;;;;;;5040283;28;20231;-93
2022/07/28 06:21:08;;;;;;;1.90;0.50;;;19.40;99.90;;;;;;5042510;28;20208;-93
2022/07/28 06:23:43;;;;;;;1.05;0.30;;;19.50;99.90;;;;;;5021219;28;20215;-94
2022/07/28 06:26:14;;;;;;;1.38;0.50;;;19.60;99.90;;;;;;5036928;28;20235;-92
2022/07/28 06:28:46;;;;;;;1.40;0.40;;;19.60;99.90;;;;;;5039128;28;20216;-95
2022/07/28 06:31:17;;;;;;;0.90;0.40;;;19.70;99.90;;;;;;5038019;28;20220;-90
2022/07/28 06:33:49;;;;;;;0.73;0.50;;;19.70;99.90;;;;;;5038553;28;20220;-92
2022/07/28 06:36:21;;;;;;;0.60;0.30;;;19.80;99.90;;;;;;5040880;28;20649;-94
2022/07/28 06:38:55;;;;;;;1.17;0.60;;;19.70;99.90;;;;;;5045906;28;20254;-90
2022/07/28 06:41:26;;;;;;;1.27;0.60;;;19.60;99.90;;;;;;5044600;28;20278;-90
2022/07/28 06:43:58;;;;;;;2.08;0.40;;;19.50;99.90;;;;;;5038567;28;20243;-92
2022/07/28 06:46:32;;;;;;;0.43;0.40;;;19.40;99.90;;;;;;5040734;28;20201;-93
2022/07/28 06:49:05;;;;;;;0.60;0.30;;;19.20;99.90;;;;;;5031491;28;20555;-91
2022/07/28 06:51:39;;;;;;;0.30;0.30;;;19.10;99.90;;;;;;5036992;28;20224;-93
2022/07/28 06:54:14;;;;;;;1.80;1.15;;;19.00;99.90;;;;;;5039354;28;21897;-92
2022/07/28 06:56:46;;;;;;;1.52;1.17;;;18.90;99.90;;;;;;5036503;28;20683;-90
2022/07/28 06:59:18;;;;;;;1.10;0.38;;;18.70;99.90;;;;;;5044721;28;20221;-88
2022/07/28 07:01:49;;;;;;;1.73;0.50;;;18.70;99.90;;;;;;5046009;28;20268;-88
2022/07/28 07:04:20;;;;;;;1.52;0.82;;;18.60;99.90;;;;;;5049854;28;20675;-85
2022/07/28 07:06:50;;;;;;;1.58;0.60;;;18.50;99.90;;;;;;5056075;28;20245;-87
2022/07/28 07:09:23;;;;;;;0.50;0.50;;;18.50;99.90;;;;;;5057758;28;20193;-87
2022/07/28 07:11:54;;;;;;;0.80;0.55;;;18.50;99.90;;;;;;5054712;28;20220;-87
2022/07/28 07:14:25;;;;;;;1.20;0.80;;;18.50;99.90;;;;;;5050938;28;20212;-86
2022/07/28 07:16:55;;;;;;;1.70;1.20;;;18.50;99.90;;;;;;5050573;28;20224;-89
2022/07/28 07:19:26;;;;;;;1.10;1.00;;;18.40;99.90;;;;;;5049148;28;20229;-87
2022/07/28 07:21:57;;;;;;;1.30;0.95;;;18.40;99.90;;;;;;5047235;28;20228;-87
2022/07/28 07:24:29;;;;;;;1.23;0.90;;;18.30;99.90;;;;;;5046432;28;20212;-86
2022/07/28 07:27:00;;;;;;;1.35;1.00;;;18.30;99.90;;;;;;5051105;28;20765;-87
2022/07/28 07:29:31;;;;;;;1.90;1.17;;;18.30;99.90;;;;;;5040119;28;20227;-88
2022/07/28 07:32:02;;;;;;;2.08;1.10;;;18.30;99.90;;;;;;5036918;28;20616;-86
2022/07/28 07:34:32;;;;;;;2.67;0.88;;;18.20;99.90;;;;;;5045664;28;20285;-87
2022/07/28 07:37:04;;;;;;;2.10;1.00;;;18.20;99.90;;;;;;5051043;28;20212;-91
2022/07/28 07:39:38;;;;;;;0.88;0.68;;;18.20;99.90;;;;;;5046641;28;20224;-89
2022/07/28 07:42:09;;;;;;;6.32;4.13;;;18.10;99.90;;;;;;5032016;28;20228;-90
2022/07/28 07:44:40;;;;;;;4.05;2.90;;;18.10;99.90;;;;;;5056005;28;20224;-92
2022/07/28 07:47:13;;;;;;;1.63;0.90;;;18.00;99.90;;;;;;5034095;28;20224;-92
2022/07/28 07:49:44;;;;;;;1.00;0.75;;;18.10;99.90;;;;;;5050382;28;20229;-91
2022/07/28 07:52:15;;;;;;;1.48;0.70;;;18.10;99.90;;;;;;5049467;28;20251;-93
2022/07/28 07:54:48;;;;;;;1.95;1.08;;;18.00;99.90;;;;;;5043807;28;20213;-94
2022/07/28 07:57:19;;;;;;;1.30;0.82;;;18.00;99.90;;;;;;5051079;28;20235;-91
2022/07/28 07:59:50;;;;;;;1.20;0.98;;;18.00;99.90;;;;;;5043000;28;20220;-92
2022/07/28 08:02:24;;;;;;;0.80;0.80;;;17.90;99.90;;;;;;5039728;28;20239;-90
2022/07/28 08:04:56;;;;;;;2.92;1.40;;;17.90;99.90;;;;;;5055936;28;20235;-89
2022/07/28 08:07:27;;;;;;;2.75;1.98;;;17.80;99.90;;;;;;5053912;28;20632;-88
2022/07/28 08:09:59;;;;;;;2.10;1.30;;;17.90;99.90;;;;;;5048451;28;20192;-88
2022/07/28 08:12:30;;;;;;;1.92;1.60;;;17.80;99.90;;;;;;5049126;28;20204;-90
2022/07/28 08:15:01;;;;;;;2.58;0.80;;;17.80;99.90;;;;;;5051545;28;20195;-89
2022/07/28 08:17:32;;;;;;;1.08;0.68;;;17.80;99.90;;;;;;5051167;28;20236;-94
2022/07/28 08:20:04;;;;;;;2.20;0.95;;;17.70;99.90;;;;;;5036345;28;20207;-91
2022/07/28 08:22:37;;;;;;;3.75;1.60;;;17.70;99.90;;;;;;5029438;28;20216;-88
2022/07/28 08:25:10;;;;;;;4.80;1.30;;;17.70;99.90;;;;;;5044076;28;20200;-92
2022/07/28 08:27:44;;;;;;;2.67;1.60;;;17.60;99.90;;;;;;5053708;28;20716;-93
2022/07/28 08:30:17;;;;;;;1.92;0.88;;;17.60;99.90;;;;;;5050046;28;20994;-91
2022/07/28 08:32:49;;;;;;;2.58;1.40;;;17.60;99.90;;;;;;5050067;28;20220;-87
2022/07/28 08:35:19;;;;;;;2.22;1.25;;;17.50;99.90;;;;;;5046979;28;20675;-84
2022/07/28 08:37:50;;;;;;;2.88;1.20;;;17.50;99.90;;;;;;5054456;28;20196;-85
2022/07/28 08:40:23;;;;;;;5.53;1.08;;;17.40;99.90;;;;;;5051415;28;20200;-88
2022/07/28 08:42:59;;;;;;;1.67;1.08;;;17.40;99.90;;;;;;5055639;28;20211;-86
2022/07/28 08:45:31;;;;;;;1.60;1.10;;;17.40;99.90;;;;;;5060043;28;20222;-87
2022/07/28 08:48:04;;;;;;;2.78;1.33;;;17.30;99.90;;;;;;5056906;28;20200;-86
2022/07/28 08:50:35;;;;;;;1.88;1.20;;;17.30;99.90;;;;;;5043279;28;20189;-88
2022/07/28 08:53:06;;;;;;;8.57;3.70;;;17.20;99.90;;;;;;5053159;28;20574;-85
2022/07/28 08:55:39;;;;;;;3.95;1.90;;;17.20;99.90;;;;;;5054392;28;20215;-84
2022/07/28 08:58:10;;;;;;;3.92;2.00;;;17.20;99.90;;;;;;5054187;28;20574;-85
2022/07/28 09:00:41;;;;;;;3.70;1.65;;;17.20;99.90;;;;;;5053693;28;20203;-85
2022/07/28 09:03:14;;;;;;;4.75;1.73;;;17.10;99.90;;;;;;5053485;28;20636;-85
2022/07/28 09:05:45;;;;;;;3.80;1.60;;;17.10;99.90;;;;;;5064448;28;20250;-88
2022/07/28 09:08:20;;;;;;;6.88;4.95;;;17.00;99.90;;;;;;5063632;28;20201;-89
2022/07/28 09:10:52;;;;;;;3.08;2.50;;;17.10;99.90;;;;;;5059645;28;20667;-87
2022/07/28 09:13:23;;;;;;;4.20;1.50;;;17.00;99.90;;;;;;5043481;28;20194;-87
2022/07/28 09:15:55;;;;;;;3.30;1.80;;;17.00;99.90;;;;;;5052380;28;20528;-88
2022/07/28 09:18:26;;;;;;;3.67;2.17;;;17.00;99.90;;;;;;5043633;28;20201;-90
2022/07/28 09:20:57;;;;;;;1.23;0.90;;;17.00;99.90;;;;;;5054870;28;20212;-87
2022/07/28 09:23:46;;;;;;;2.35;1.45;;;16.90;99.90;;;;;;5048971;28;20220;-89
2022/07/28 09:26:20;;;;;;;1.65;1.00;;;16.90;99.90;;;;;;5055701;28;20275;-90
2022/07/28 09:28:53;;;;;;;5.30;4.22;;;16.80;99.90;;;;;;5038205;28;20188;-90
2022/07/28 09:31:26;;;;;;;5.20;3.25;;;16.80;99.90;;;;;;5037218;28;20240;-88
2022/07/28 09:33:59;;;;;;;3.03;1.60;;;16.80;99.90;;;;;;5048359;28;20219;-87
2022/07/28 09:36:30;;;;;;;1.95;1.27;;;16.80;99.90;;;;;;5042688;28;20284;-87
2022/07/28 09:39:02;;;;;;;1.15;0.70;;;16.80;99.90;;;;;;5054091;28;20232;-86
2022/07/28 09:41:50;;;;;;;3.00;1.20;;;16.70;99.90;;;;;;5052114;28;20185;-91
2022/07/28 09:44:25;;;;;;;1.85;1.00;;;16.60;99.90;;;;;;5034904;28;20229;-86
2022/07/28 09:46:57;;;;;;;2.72;0.90;;;16.60;99.90;;;;;;5023825;28;20188;-79
2022/07/28 09:49:43;;;;;;;1.35;0.73;;;16.60;99.90;;;;;;5041567;28;20247;-78
2022/07/28 09:52:13;;;;;;;3.88;1.23;;;16.50;99.90;;;;;;5047739;28;20235;-78
2022/07/28 09:55:02;;;;;;;6.95;1.30;;;16.50;99.90;;;;;;5041366;28;20201;-80
2022/07/28 09:57:36;;;;;;;6.43;3.80;;;16.60;99.90;;;;;;5045382;28;20266;-78
2022/07/28 10:00:08;;;;;;;3.83;2.58;;;16.60;99.90;;;;;;5044464;28;20197;-78
2022/07/28 10:02:39;;;;;;;3.15;2.42;;;16.50;99.90;;;;;;5046540;28;20200;-78
2022/07/28 10:05:11;;;;;;;2.03;1.15;;;16.50;99.90;;;;;;5039295;28;20213;-77
2022/07/28 10:07:51;;;;;;;2.40;1.05;;;16.50;99.90;;;;;;5044244;28;20192;-78
2022/07/28 10:10:25;;;;;;;2.67;1.23;;;16.40;99.90;;;;;;5042978;28;20262;-79
2022/07/28 10:13:07;;;;;;;1.98;0.90;;;16.40;99.90;;;;;;5049821;28;20584;-78
2022/07/28 10:18:24;;;;;;;14.52;9.00;;;16.40;99.90;;;;;;5032756;28;20204;-80
2022/07/28 10:20:54;;;;;;;1.50;1.10;;;16.40;99.90;;;;;;5024195;28;20213;-79
2022/07/28 10:23:25;;;;;;;1.33;1.00;;;16.30;99.90;;;;;;5029706;28;21065;-79
2022/07/28 10:25:59;;;;;;;3.00;1.10;;;16.30;99.90;;;;;;5024324;28;20222;-79
2022/07/28 10:28:33;;;;;;;1.75;0.90;;;16.30;99.90;;;;;;5030541;28;20205;-78
2022/07/28 10:31:06;;;;;;;2.80;1.10;;;16.30;99.90;;;;;;5026700;28;20216;-79
2022/07/28 10:33:40;;;;;;;1.98;1.10;;;16.30;99.90;;;;;;5032136;28;20197;-80
2022/07/28 10:36:13;;;;;;;1.83;0.90;;;16.20;99.90;;;;;;5027119;28;20216;-80
2022/07/28 10:38:44;;;;;;;2.10;1.15;;;16.20;99.90;;;;;;5027462;28;20596;-85
2022/07/28 10:41:16;;;;;;;1.50;0.98;;;16.20;99.90;;;;;;5032051;28;20225;-85
2022/07/28 10:43:49;;;;;;;2.03;1.13;;;16.20;99.90;;;;;;5030199;28;20283;-81
2022/07/28 10:46:20;;;;;;;1.88;1.17;;;16.20;99.90;;;;;;5031962;28;20201;-82
2022/07/28 10:48:51;;;;;;;1.98;1.00;;;16.20;99.90;;;;;;5030235;28;20193;-80
2022/07/28 10:51:23;;;;;;;2.25;1.40;;;16.10;99.90;;;;;;5023041;28;20195;-81
2022/07/28 10:53:57;;;;;;;1.50;0.95;;;16.10;99.90;;;;;;5029285;28;20220;-81
2022/07/28 10:56:36;;;;;;;1.17;1.02;;;16.10;99.90;;;;;;5030447;28;20200;-81
2022/07/28 10:59:23;;;;;;;1.40;0.95;;;16.00;99.90;;;;;;5030731;28;20576;-80
2022/07/28 11:01:54;;;;;;;1.27;0.90;;;16.10;99.90;;;;;;5028780;28;20213;-82
2022/07/28 11:05:00;;;;;;;3.28;1.25;;;16.10;99.90;;;;;;5049623;28;20238;-80
2022/07/28 11:07:40;;;;;;;1.30;0.88;;;16.10;99.90;;;;;;5023542;28;20205;-80
2022/07/28 11:10:21;;;;;;;1.30;0.80;;;16.10;99.90;;;;;;5029568;28;20197;-77
2022/07/28 11:12:53;;;;;;;1.55;1.00;;;16.10;99.90;;;;;;5028515;28;20197;-79
2022/07/28 11:15:34;;;;;;;1.20;0.80;;;16.00;99.90;;;;;;5025441;28;20201;-79
2022/07/28 11:18:09;;;;;;;4.18;3.25;;;16.00;99.90;;;;;;5044963;28;20235;-78
2022/07/28 11:21:11;;;;;;;3.42;1.50;;;16.00;99.90;;;;;;5048570;28;20192;-79
2022/07/28 11:23:57;;;;;;;3.33;1.02;;;16.10;99.90;;;;;;5038285;28;20231;-78
2022/07/28 11:26:37;;;;;;;1.48;0.80;;;16.00;99.90;;;;;;5049607;28;20603;-80
2022/07/28 11:29:24;;;;;;;1.27;0.80;;;15.90;99.90;;;;;;5044564;28;20310;-80
2022/07/28 11:32:06;;;;;;;1.23;0.88;;;15.90;99.90;;;;;;5047305;28;20212;-80
2022/07/28 11:35:08;;;;;;;1.65;0.90;;;15.90;99.90;;;;;;5044747;28;20213;-79
2022/07/28 11:38:13;;;;;;;0.88;0.80;;;15.90;99.90;;;;;;5045870;28;20773;-78
2022/07/28 11:40:46;;;;;;;1.80;0.80;;;16.00;99.90;;;;;;5043956;28;20241;-79
2022/07/28 11:43:37;;;;;;;0.80;0.73;;;16.00;99.90;;;;;;5048850;28;20247;-79
2022/07/28 11:46:38;;;;;;;1.50;0.70;;;16.10;99.90;;;;;;5042496;28;20776;-79
2022/07/28 11:49:22;;;;;;;1.83;0.85;;;16.00;99.90;;;;;;5043178;28;20193;-78
2022/07/28 11:52:24;;;;;;;1.08;0.77;;;16.00;99.90;;;;;;5043470;28;20204;-81
2022/07/28 11:55:02;;;;;;;1.27;0.80;;;16.00;99.90;;;;;;5048076;28;20212;-79
2022/07/28 11:57:39;;;;;;;2.17;1.00;;;16.00;99.90;;;;;;5049702;28;20678;-80
2022/07/28 12:00:11;;;;;;;2.72;0.90;;;16.00;99.90;;;;;;5043910;28;20542;-79
2022/07/28 12:02:43;;;;;;;2.78;0.68;;;16.10;99.90;;;;;;5045261;28;20212;-79
2022/07/28 12:05:18;;;;;;;1.83;0.80;;;16.00;99.90;;;;;;5042756;28;20224;-79
2022/07/28 12:07:51;;;;;;;2.38;0.88;;;16.00;99.90;;;;;;5047025;28;20254;-79
2022/07/28 12:10:33;;;;;;;1.27;0.80;;;16.00;99.90;;;;;;5047647;28;20660;-79
2022/07/28 12:13:06;;;;;;;2.17;0.88;;;15.90;99.90;;;;;;5042666;28;20196;-78
2022/07/28 12:15:37;;;;;;;2.67;0.77;;;15.90;99.90;;;;;;5048297;28;20193;-79
2022/07/28 12:18:13;;;;;;;1.25;0.70;;;15.90;99.90;;;;;;5048407;28;20247;-80
2022/07/28 12:20:51;;;;;;;2.78;0.82;;;15.90;99.90;;;;;;5038921;28;20223;-81
2022/07/28 12:23:32;;;;;;;2.05;0.65;;;15.90;99.90;;;;;;5046693;28;20208;-81
2022/07/28 12:26:03;;;;;;;1.63;0.90;;;15.80;99.90;;;;;;5043542;28;20279;-80
2022/07/28 12:28:35;;;;;;;2.22;0.80;;;15.90;99.90;;;;;;5048530;28;20207;-81
2022/07/28 12:31:15;;;;;;;1.77;0.90;;;15.80;99.90;;;;;;5026451;28;20216;-81
2022/07/28 12:33:46;;;;;;;1.50;1.02;;;15.80;99.90;;;;;;5044519;28;20659;-80
2022/07/28 12:36:20;;;;;;;0.88;0.77;;;15.80;99.90;;;;;;5042962;28;20262;-82
2022/07/28 12:38:53;;;;;;;2.22;1.00;;;15.80;99.90;;;;;;5044249;28;20213;-86
2022/07/28 12:41:24;;;;;;;2.22;0.60;;;15.80;99.90;;;;;;5046363;28;20248;-84
2022/07/28 12:43:55;;;;;;;1.85;0.90;;;15.80;99.90;;;;;;5044917;28;20898;-87
2022/07/28 12:46:27;;;;;;;2.75;0.90;;;15.80;99.90;;;;;;5044321;28;20246;-80
2022/07/28 12:48:59;;;;;;;1.33;0.88;;;15.80;99.90;;;;;;5045096;28;20193;-77
2022/07/28 12:51:40;;;;;;;0.80;0.70;;;15.70;99.90;;;;;;5039046;28;20216;-79
2022/07/28 12:54:12;;;;;;;1.85;0.90;;;15.70;99.90;;;;;;5040456;28;20280;-79
2022/07/28 12:56:49;;;;;;;1.17;0.90;;;15.70;99.90;;;;;;5047206;28;20591;-79
2022/07/28 12:59:21;;;;;;;1.70;0.80;;;15.80;99.90;;;;;;5039535;28;20279;-79
2022/07/28 13:01:54;;;;;;;0.93;0.65;;;15.70;99.90;;;;;;5042631;28;20216;-80
2022/07/28 13:04:42;;;;;;;1.48;0.63;;;15.70;99.90;;;;;;5037683;28;20227;-80
2022/07/28 13:07:16;;;;;;;1.50;0.90;;;15.70;99.90;;;;;;5033303;28;20283;-79
2022/07/28 13:09:48;;;;;;;1.23;0.80;;;15.60;99.90;;;;;;5040960;28;20220;-80
2022/07/28 13:12:20;;;;;;;1.98;0.90;;;15.60;99.90;;;;;;5041180;28;20217;-79
2022/07/28 13:14:52;;;;;;;1.40;0.90;;;15.60;99.90;;;;;;5049623;28;20291;-80
2022/07/28 13:17:24;;;;;;;3.03;0.90;;;15.60;99.90;;;;;;5040417;28;20229;-80
2022/07/28 13:20:08;;;;;;;2.15;0.90;;;15.60;99.90;;;;;;5050531;28;20189;-80
2022/07/28 13:22:43;;;;;;;1.20;0.85;;;15.60;99.90;;;;;;5047043;28;20563;-80
2022/07/28 13:25:16;;;;;;;1.52;0.70;;;15.60;99.90;;;;;;5047154;28;20232;-80
2022/07/28 13:27:46;;;;;;;1.13;0.73;;;15.60;99.90;;;;;;5048430;28;20737;-80
2022/07/28 13:30:17;;;;;;;1.98;0.80;;;15.60;99.90;;;;;;5052129;28;20199;-80